sensor_id;sensor_type;location;lat;lon;timestamp;temperature;humidity
33865;DHT22;20159;51.072;13.526;2022-08-19T00:00:44;22.90;83.10
33865;DHT22;20159;51.072;13.526;2022-08-19T00:03:10;22.90;83.10
33865;DHT22;20159;51.072;13.526;2022-08-19T00:05:35;22.90;83.30
33865;DHT22;20159;51.072;13.526;2022-08-19T00:08:01;22.90;83.40
33865;DHT22;20159;51.072;13.526;2022-08-19T00:10:26;22.90;83.60
33865;DHT22;20159;51.072;13.526;2022-08-19T00:12:52;22.80;83.70
33865;DHT22;20159;51.072;13.526;2022-08-19T00:15:20;22.90;83.80
33865;DHT22;20159;51.072;13.526;2022-08-19T00:17:46;22.90;84.00
33865;DHT22;20159;51.072;13.526;2022-08-19T00:20:15;22.80;83.70
33865;DHT22;20159;51.072;13.526;2022-08-19T00:22:45;22.90;84.00
33865;DHT22;20159;51.072;13.526;2022-08-19T00:25:12;22.80;84.00
33865;DHT22;20159;51.072;13.526;2022-08-19T00:27:38;22.90;84.00
33865;DHT22;20159;51.072;13.526;2022-08-19T00:30:06;22.80;84.00
33865;DHT22;20159;51.072;13.526;2022-08-19T00:32:32;22.90;84.10
33865;DHT22;20159;51.072;13.526;2022-08-19T00:34:59;22.90;83.90
33865;DHT22;20159;51.072;13.526;2022-08-19T00:37:25;22.90;84.00
33865;DHT22;20159;51.072;13.526;2022-08-19T00:39:52;22.90;84.10
33865;DHT22;20159;51.072;13.526;2022-08-19T00:42:20;22.90;84.30
33865;DHT22;20159;51.072;13.526;2022-08-19T00:44:45;22.90;84.50
33865;DHT22;20159;51.072;13.526;2022-08-19T00:47:11;22.90;84.50
33865;DHT22;20159;51.072;13.526;2022-08-19T00:49:45;22.90;84.30
33865;DHT22;20159;51.072;13.526;2022-08-19T00:52:28;22.90;85.00
33865;DHT22;20159;51.072;13.526;2022-08-19T00:54:55;22.90;84.70
33865;DHT22;20159;51.072;13.526;2022-08-19T00:57:32;22.90;84.40
33865;DHT22;20159;51.072;13.526;2022-08-19T00:59:59;22.90;84.80
33865;DHT22;20159;51.072;13.526;2022-08-19T01:02:26;22.90;84.50
33865;DHT22;20159;51.072;13.526;2022-08-19T01:04:52;22.90;84.50
33865;DHT22;20159;51.072;13.526;2022-08-19T01:07:18;23.00;84.60
33865;DHT22;20159;51.072;13.526;2022-08-19T01:09:43;23.00;84.60
33865;DHT22;20159;51.072;13.526;2022-08-19T01:12:09;23.00;84.70
33865;DHT22;20159;51.072;13.526;2022-08-19T01:14:37;23.00;84.60
33865;DHT22;20159;51.072;13.526;2022-08-19T01:17:04;23.00;84.90
33865;DHT22;20159;51.072;13.526;2022-08-19T01:19:35;23.00;84.80
33865;DHT22;20159;51.072;13.526;2022-08-19T01:22:11;23.00;85.10
33865;DHT22;20159;51.072;13.526;2022-08-19T01:24:37;23.00;85.20
33865;DHT22;20159;51.072;13.526;2022-08-19T01:27:05;23.00;84.70
33865;DHT22;20159;51.072;13.526;2022-08-19T01:29:30;23.10;84.90
33865;DHT22;20159;51.072;13.526;2022-08-19T01:31:57;23.10;84.80
33865;DHT22;20159;51.072;13.526;2022-08-19T01:34:22;23.10;85.40
33865;DHT22;20159;51.072;13.526;2022-08-19T01:36:48;23.10;84.90
33865;DHT22;20159;51.072;13.526;2022-08-19T01:39:18;23.10;84.90
33865;DHT22;20159;51.072;13.526;2022-08-19T01:41:44;23.10;85.20
33865;DHT22;20159;51.072;13.526;2022-08-19T01:44:10;23.10;85.00
33865;DHT22;20159;51.072;13.526;2022-08-19T01:46:36;23.10;85.00
33865;DHT22;20159;51.072;13.526;2022-08-19T01:49:03;23.10;85.00
33865;DHT22;20159;51.072;13.526;2022-08-19T01:51:29;23.20;85.10
33865;DHT22;20159;51.072;13.526;2022-08-19T01:53:56;23.10;85.00
33865;DHT22;20159;51.072;13.526;2022-08-19T01:56:22;23.10;85.00
33865;DHT22;20159;51.072;13.526;2022-08-19T01:58:55;23.20;85.10
33865;DHT22;20159;51.072;13.526;2022-08-19T02:01:21;23.20;85.60
33865;DHT22;20159;51.072;13.526;2022-08-19T02:03:47;23.20;85.10
33865;DHT22;20159;51.072;13.526;2022-08-19T02:06:13;23.20;85.10
33865;DHT22;20159;51.072;13.526;2022-08-19T02:08:39;23.20;85.10
33865;DHT22;20159;51.072;13.526;2022-08-19T02:11:05;23.20;85.60
33865;DHT22;20159;51.072;13.526;2022-08-19T02:13:31;23.20;85.10
33865;DHT22;20159;51.072;13.526;2022-08-19T02:15:57;23.20;85.10
33865;DHT22;20159;51.072;13.526;2022-08-19T02:18:23;23.20;85.30
33865;DHT22;20159;51.072;13.526;2022-08-19T02:20:49;23.20;85.30
33865;DHT22;20159;51.072;13.526;2022-08-19T02:23:15;23.20;85.50
33865;DHT22;20159;51.072;13.526;2022-08-19T02:25:44;23.20;85.60
33865;DHT22;20159;51.072;13.526;2022-08-19T02:28:11;23.10;85.60
33865;DHT22;20159;51.072;13.526;2022-08-19T02:30:37;23.20;85.50
33865;DHT22;20159;51.072;13.526;2022-08-19T02:33:04;23.20;85.70
33865;DHT22;20159;51.072;13.526;2022-08-19T02:35:30;23.10;85.70
33865;DHT22;20159;51.072;13.526;2022-08-19T02:37:56;23.10;85.80
33865;DHT22;20159;51.072;13.526;2022-08-19T02:40:40;23.10;85.70
33865;DHT22;20159;51.072;13.526;2022-08-19T02:43:09;23.10;85.70
33865;DHT22;20159;51.072;13.526;2022-08-19T02:45:36;23.10;86.20
33865;DHT22;20159;51.072;13.526;2022-08-19T02:48:03;23.10;86.00
33865;DHT22;20159;51.072;13.526;2022-08-19T02:50:29;23.10;86.10
33865;DHT22;20159;51.072;13.526;2022-08-19T02:52:54;23.10;86.00
33865;DHT22;20159;51.072;13.526;2022-08-19T02:55:20;23.00;86.00
33865;DHT22;20159;51.072;13.526;2022-08-19T02:57:46;23.10;86.20
33865;DHT22;20159;51.072;13.526;2022-08-19T03:00:12;23.10;86.10
33865;DHT22;20159;51.072;13.526;2022-08-19T03:02:39;23.10;86.20
33865;DHT22;20159;51.072;13.526;2022-08-19T03:05:05;23.10;86.20
33865;DHT22;20159;51.072;13.526;2022-08-19T03:07:31;23.10;86.20
33865;DHT22;20159;51.072;13.526;2022-08-19T03:09:57;23.10;86.10
33865;DHT22;20159;51.072;13.526;2022-08-19T03:12:23;23.20;86.00
33865;DHT22;20159;51.072;13.526;2022-08-19T03:14:48;23.10;85.90
33865;DHT22;20159;51.072;13.526;2022-08-19T03:17:14;23.60;86.20
33865;DHT22;20159;51.072;13.526;2022-08-19T03:19:39;23.20;86.00
33865;DHT22;20159;51.072;13.526;2022-08-19T03:22:05;23.20;86.00
33865;DHT22;20159;51.072;13.526;2022-08-19T03:24:31;23.10;85.90
33865;DHT22;20159;51.072;13.526;2022-08-19T03:26:57;23.20;86.00
33865;DHT22;20159;51.072;13.526;2022-08-19T03:29:25;23.20;86.10
33865;DHT22;20159;51.072;13.526;2022-08-19T03:31:50;23.10;86.00
33865;DHT22;20159;51.072;13.526;2022-08-19T03:34:26;23.20;86.00
33865;DHT22;20159;51.072;13.526;2022-08-19T03:36:53;23.20;86.60
33865;DHT22;20159;51.072;13.526;2022-08-19T03:39:20;23.10;86.00
33865;DHT22;20159;51.072;13.526;2022-08-19T03:41:47;23.20;86.00
33865;DHT22;20159;51.072;13.526;2022-08-19T03:44:20;23.20;86.10
33865;DHT22;20159;51.072;13.526;2022-08-19T03:46:49;23.10;86.30
33865;DHT22;20159;51.072;13.526;2022-08-19T03:49:15;23.20;86.10
33865;DHT22;20159;51.072;13.526;2022-08-19T03:51:41;23.20;86.10
33865;DHT22;20159;51.072;13.526;2022-08-19T03:54:10;23.20;86.10
33865;DHT22;20159;51.072;13.526;2022-08-19T03:56:38;23.20;86.10
33865;DHT22;20159;51.072;13.526;2022-08-19T03:59:07;23.20;86.20
33865;DHT22;20159;51.072;13.526;2022-08-19T04:01:32;23.20;86.10
33865;DHT22;20159;51.072;13.526;2022-08-19T04:03:59;23.20;86.10
33865;DHT22;20159;51.072;13.526;2022-08-19T04:06:31;23.20;86.20
33865;DHT22;20159;51.072;13.526;2022-08-19T04:08:58;23.20;86.40
33865;DHT22;20159;51.072;13.526;2022-08-19T04:11:29;23.20;86.10
33865;DHT22;20159;51.072;13.526;2022-08-19T04:13:56;23.20;86.40
33865;DHT22;20159;51.072;13.526;2022-08-19T04:16:24;23.20;86.10
33865;DHT22;20159;51.072;13.526;2022-08-19T04:18:49;23.20;86.10
33865;DHT22;20159;51.072;13.526;2022-08-19T04:21:21;23.20;86.00
33865;DHT22;20159;51.072;13.526;2022-08-19T04:23:47;23.30;86.20
33865;DHT22;20159;51.072;13.526;2022-08-19T04:26:15;23.30;85.90
33865;DHT22;20159;51.072;13.526;2022-08-19T04:28:42;23.30;85.90
33865;DHT22;20159;51.072;13.526;2022-08-19T04:31:17;23.30;85.80
33865;DHT22;20159;51.072;13.526;2022-08-19T04:33:43;23.30;86.00
33865;DHT22;20159;51.072;13.526;2022-08-19T04:36:17;23.30;85.60
33865;DHT22;20159;51.072;13.526;2022-08-19T04:38:44;23.30;85.90
33865;DHT22;20159;51.072;13.526;2022-08-19T04:41:10;23.30;85.40
33865;DHT22;20159;51.072;13.526;2022-08-19T04:43:54;23.30;85.30
33865;DHT22;20159;51.072;13.526;2022-08-19T04:46:19;23.30;85.30
33865;DHT22;20159;51.072;13.526;2022-08-19T04:48:46;23.30;85.30
33865;DHT22;20159;51.072;13.526;2022-08-19T04:51:13;23.30;85.20
33865;DHT22;20159;51.072;13.526;2022-08-19T04:53:40;23.30;85.30
33865;DHT22;20159;51.072;13.526;2022-08-19T04:56:16;23.30;85.40
33865;DHT22;20159;51.072;13.526;2022-08-19T04:58:43;23.30;85.70
33865;DHT22;20159;51.072;13.526;2022-08-19T05:01:12;23.30;85.50
33865;DHT22;20159;51.072;13.526;2022-08-19T05:03:38;23.30;85.60
33865;DHT22;20159;51.072;13.526;2022-08-19T05:06:11;23.30;85.50
33865;DHT22;20159;51.072;13.526;2022-08-19T05:08:38;23.30;86.10
33865;DHT22;20159;51.072;13.526;2022-08-19T05:11:19;23.30;85.50
33865;DHT22;20159;51.072;13.526;2022-08-19T05:13:46;23.30;85.70
33865;DHT22;20159;51.072;13.526;2022-08-19T05:16:12;23.30;85.40
33865;DHT22;20159;51.072;13.526;2022-08-19T05:18:39;23.30;85.30
33865;DHT22;20159;51.072;13.526;2022-08-19T05:21:24;23.30;85.30
33865;DHT22;20159;51.072;13.526;2022-08-19T05:24:09;23.30;85.10
33865;DHT22;20159;51.072;13.526;2022-08-19T05:26:37;23.30;85.10
33865;DHT22;20159;51.072;13.526;2022-08-19T05:29:02;23.30;85.10
33865;DHT22;20159;51.072;13.526;2022-08-19T05:31:29;23.30;85.00
33865;DHT22;20159;51.072;13.526;2022-08-19T05:33:54;23.30;85.00
33865;DHT22;20159;51.072;13.526;2022-08-19T05:36:21;23.30;85.10
33865;DHT22;20159;51.072;13.526;2022-08-19T05:38:46;23.30;84.90
33865;DHT22;20159;51.072;13.526;2022-08-19T05:41:14;23.30;84.90
33865;DHT22;20159;51.072;13.526;2022-08-19T05:43:40;23.30;84.80
33865;DHT22;20159;51.072;13.526;2022-08-19T05:46:07;23.30;84.70
33865;DHT22;20159;51.072;13.526;2022-08-19T05:48:33;23.30;84.70
33865;DHT22;20159;51.072;13.526;2022-08-19T05:51:06;23.30;84.70
33865;DHT22;20159;51.072;13.526;2022-08-19T05:53:34;23.30;84.80
33865;DHT22;20159;51.072;13.526;2022-08-19T05:56:12;23.30;84.50
33865;DHT22;20159;51.072;13.526;2022-08-19T05:58:38;23.30;84.80
33865;DHT22;20159;51.072;13.526;2022-08-19T06:01:09;23.30;84.60
33865;DHT22;20159;51.072;13.526;2022-08-19T06:03:36;23.40;84.80
33865;DHT22;20159;51.072;13.526;2022-08-19T06:06:04;23.30;84.60
33865;DHT22;20159;51.072;13.526;2022-08-19T06:08:30;23.40;84.70
33865;DHT22;20159;51.072;13.526;2022-08-19T06:10:56;23.30;84.70
33865;DHT22;20159;51.072;13.526;2022-08-19T06:13:22;23.40;84.80
33865;DHT22;20159;51.072;13.526;2022-08-19T06:15:48;23.40;84.90
33865;DHT22;20159;51.072;13.526;2022-08-19T06:18:14;23.40;84.90
33865;DHT22;20159;51.072;13.526;2022-08-19T06:20:40;23.40;84.90
33865;DHT22;20159;51.072;13.526;2022-08-19T06:23:06;23.40;85.10
33865;DHT22;20159;51.072;13.526;2022-08-19T06:25:31;23.40;85.00
33865;DHT22;20159;51.072;13.526;2022-08-19T06:27:57;23.40;85.10
33865;DHT22;20159;51.072;13.526;2022-08-19T06:30:22;23.40;85.10
33865;DHT22;20159;51.072;13.526;2022-08-19T06:32:48;23.40;85.10
33865;DHT22;20159;51.072;13.526;2022-08-19T06:35:13;23.40;85.10
33865;DHT22;20159;51.072;13.526;2022-08-19T06:37:40;23.40;85.20
33865;DHT22;20159;51.072;13.526;2022-08-19T06:40:06;23.40;85.30
33865;DHT22;20159;51.072;13.526;2022-08-19T06:42:34;23.40;85.40
33865;DHT22;20159;51.072;13.526;2022-08-19T06:45:00;23.40;85.50
33865;DHT22;20159;51.072;13.526;2022-08-19T06:47:29;23.40;85.50
33865;DHT22;20159;51.072;13.526;2022-08-19T06:49:56;23.30;85.70
33865;DHT22;20159;51.072;13.526;2022-08-19T06:52:25;23.30;85.90
33865;DHT22;20159;51.072;13.526;2022-08-19T06:54:50;23.30;85.90
33865;DHT22;20159;51.072;13.526;2022-08-19T06:57:16;23.30;86.00
33865;DHT22;20159;51.072;13.526;2022-08-19T06:59:42;23.20;86.40
33865;DHT22;20159;51.072;13.526;2022-08-19T07:02:07;23.20;86.60
33865;DHT22;20159;51.072;13.526;2022-08-19T07:04:34;23.20;86.90
33865;DHT22;20159;51.072;13.526;2022-08-19T07:07:09;23.10;87.20
33865;DHT22;20159;51.072;13.526;2022-08-19T07:09:37;23.10;87.70
33865;DHT22;20159;51.072;13.526;2022-08-19T07:12:06;23.10;87.60
33865;DHT22;20159;51.072;13.526;2022-08-19T07:14:33;23.00;88.00
33865;DHT22;20159;51.072;13.526;2022-08-19T07:17:02;23.00;87.90
33865;DHT22;20159;51.072;13.526;2022-08-19T07:19:29;23.00;88.10
33865;DHT22;20159;51.072;13.526;2022-08-19T07:21:54;23.00;88.80
33865;DHT22;20159;51.072;13.526;2022-08-19T07:24:22;23.00;89.10
33865;DHT22;20159;51.072;13.526;2022-08-19T07:26:50;23.00;89.50
33865;DHT22;20159;51.072;13.526;2022-08-19T07:29:16;23.00;89.60
33865;DHT22;20159;51.072;13.526;2022-08-19T07:31:42;23.00;89.60
33865;DHT22;20159;51.072;13.526;2022-08-19T07:34:10;23.00;89.70
33865;DHT22;20159;51.072;13.526;2022-08-19T07:36:38;23.00;89.80
33865;DHT22;20159;51.072;13.526;2022-08-19T07:39:09;23.00;90.00
33865;DHT22;20159;51.072;13.526;2022-08-19T07:41:36;23.00;90.10
33865;DHT22;20159;51.072;13.526;2022-08-19T07:44:03;23.00;89.80
33865;DHT22;20159;51.072;13.526;2022-08-19T07:46:34;23.10;89.70
33865;DHT22;20159;51.072;13.526;2022-08-19T07:49:01;23.10;90.00
33865;DHT22;20159;51.072;13.526;2022-08-19T07:51:27;23.00;89.70
33865;DHT22;20159;51.072;13.526;2022-08-19T07:53:53;23.10;89.80
33865;DHT22;20159;51.072;13.526;2022-08-19T07:56:20;23.10;89.60
33865;DHT22;20159;51.072;13.526;2022-08-19T07:58:48;23.10;90.00
33865;DHT22;20159;51.072;13.526;2022-08-19T08:01:20;23.10;90.00
33865;DHT22;20159;51.072;13.526;2022-08-19T08:03:48;23.10;90.20
33865;DHT22;20159;51.072;13.526;2022-08-19T08:06:32;23.10;90.00
33865;DHT22;20159;51.072;13.526;2022-08-19T08:09:20;23.10;90.00
33865;DHT22;20159;51.072;13.526;2022-08-19T08:11:51;23.10;90.30
33865;DHT22;20159;51.072;13.526;2022-08-19T08:14:25;23.10;90.20
33865;DHT22;20159;51.072;13.526;2022-08-19T08:16:51;23.10;90.30
33865;DHT22;20159;51.072;13.526;2022-08-19T08:19:19;23.10;90.20
33865;DHT22;20159;51.072;13.526;2022-08-19T08:21:46;23.10;90.30
33865;DHT22;20159;51.072;13.526;2022-08-19T08:24:11;23.20;90.50
33865;DHT22;20159;51.072;13.526;2022-08-19T08:26:37;23.20;90.50
33865;DHT22;20159;51.072;13.526;2022-08-19T08:29:03;23.20;90.50
33865;DHT22;20159;51.072;13.526;2022-08-19T08:31:29;23.20;90.50
33865;DHT22;20159;51.072;13.526;2022-08-19T08:33:54;23.20;90.60
33865;DHT22;20159;51.072;13.526;2022-08-19T08:36:20;23.20;90.50
33865;DHT22;20159;51.072;13.526;2022-08-19T08:38:46;23.30;90.60
33865;DHT22;20159;51.072;13.526;2022-08-19T08:41:46;23.30;90.70
33865;DHT22;20159;51.072;13.526;2022-08-19T08:44:21;23.30;90.90
33865;DHT22;20159;51.072;13.526;2022-08-19T08:46:49;23.40;90.90
33865;DHT22;20159;51.072;13.526;2022-08-19T08:49:41;23.40;91.00
33865;DHT22;20159;51.072;13.526;2022-08-19T08:52:18;23.50;91.10
33865;DHT22;20159;51.072;13.526;2022-08-19T08:54:49;23.00;91.30
33865;DHT22;20159;51.072;13.526;2022-08-19T08:57:29;23.80;91.40
33865;DHT22;20159;51.072;13.526;2022-08-19T09:00:00;21.40;90.50
33865;DHT22;20159;51.072;13.526;2022-08-19T09:02:28;24.10;90.40
33865;DHT22;20159;51.072;13.526;2022-08-19T09:04:54;24.20;90.00
33865;DHT22;20159;51.072;13.526;2022-08-19T09:07:34;24.30;90.10
33865;DHT22;20159;51.072;13.526;2022-08-19T09:10:16;24.50;90.10
33865;DHT22;20159;51.072;13.526;2022-08-19T09:13:17;24.60;89.60
33865;DHT22;20159;51.072;13.526;2022-08-19T09:15:56;24.70;88.50
33865;DHT22;20159;51.072;13.526;2022-08-19T09:18:23;24.80;87.90
33865;DHT22;20159;51.072;13.526;2022-08-19T09:20:49;24.90;88.00
33865;DHT22;20159;51.072;13.526;2022-08-19T09:23:15;24.90;87.60
33865;DHT22;20159;51.072;13.526;2022-08-19T09:25:41;25.00;87.60
33865;DHT22;20159;51.072;13.526;2022-08-19T09:28:06;25.00;87.60
33865;DHT22;20159;51.072;13.526;2022-08-19T09:30:36;25.10;87.20
33865;DHT22;20159;51.072;13.526;2022-08-19T09:33:04;25.20;87.30
33865;DHT22;20159;51.072;13.526;2022-08-19T09:35:30;25.30;87.00
33865;DHT22;20159;51.072;13.526;2022-08-19T09:37:57;25.40;87.30
33865;DHT22;20159;51.072;13.526;2022-08-19T09:40:24;25.50;86.60
33865;DHT22;20159;51.072;13.526;2022-08-19T09:42:50;25.60;86.70
33865;DHT22;20159;51.072;13.526;2022-08-19T09:45:18;25.80;86.30
33865;DHT22;20159;51.072;13.526;2022-08-19T09:47:46;25.90;85.70
33865;DHT22;20159;51.072;13.526;2022-08-19T09:50:12;26.00;84.40
33865;DHT22;20159;51.072;13.526;2022-08-19T09:52:38;26.00;83.20
33865;DHT22;20159;51.072;13.526;2022-08-19T09:55:05;26.20;83.50
33865;DHT22;20159;51.072;13.526;2022-08-19T09:57:31;26.20;83.50
33865;DHT22;20159;51.072;13.526;2022-08-19T09:59:57;26.20;83.70
33865;DHT22;20159;51.072;13.526;2022-08-19T10:02:22;26.40;83.00
33865;DHT22;20159;51.072;13.526;2022-08-19T10:04:48;26.40;83.40
33865;DHT22;20159;51.072;13.526;2022-08-19T10:07:32;26.50;81.90
33865;DHT22;20159;51.072;13.526;2022-08-19T10:09:58;26.60;81.10
33865;DHT22;20159;51.072;13.526;2022-08-19T10:12:24;26.60;80.70
33865;DHT22;20159;51.072;13.526;2022-08-19T10:14:49;26.50;80.80
33865;DHT22;20159;51.072;13.526;2022-08-19T10:17:16;26.50;80.30
33865;DHT22;20159;51.072;13.526;2022-08-19T10:19:42;26.50;80.70
33865;DHT22;20159;51.072;13.526;2022-08-19T10:22:08;26.50;80.90
33865;DHT22;20159;51.072;13.526;2022-08-19T10:24:34;26.40;81.00
33865;DHT22;20159;51.072;13.526;2022-08-19T10:27:01;26.40;81.70
33865;DHT22;20159;51.072;13.526;2022-08-19T10:29:31;26.50;81.70
33865;DHT22;20159;51.072;13.526;2022-08-19T10:31:57;26.60;81.30
33865;DHT22;20159;51.072;13.526;2022-08-19T10:34:24;26.60;81.70
33865;DHT22;20159;51.072;13.526;2022-08-19T10:36:50;26.80;82.10
33865;DHT22;20159;51.072;13.526;2022-08-19T10:39:16;26.90;80.60
33865;DHT22;20159;51.072;13.526;2022-08-19T10:41:42;27.10;79.70
33865;DHT22;20159;51.072;13.526;2022-08-19T10:44:10;27.30;80.60
33865;DHT22;20159;51.072;13.526;2022-08-19T10:46:39;27.50;78.40
33865;DHT22;20159;51.072;13.526;2022-08-19T10:49:08;27.60;77.90
33865;DHT22;20159;51.072;13.526;2022-08-19T10:51:34;27.70;78.00
33865;DHT22;20159;51.072;13.526;2022-08-19T10:54:18;27.90;77.40
33865;DHT22;20159;51.072;13.526;2022-08-19T10:56:43;27.90;77.00
33865;DHT22;20159;51.072;13.526;2022-08-19T10:59:22;28.00;76.50
33865;DHT22;20159;51.072;13.526;2022-08-19T11:01:48;28.00;75.90
33865;DHT22;20159;51.072;13.526;2022-08-19T11:04:14;28.00;74.70
33865;DHT22;20159;51.072;13.526;2022-08-19T11:06:43;28.00;74.70
33865;DHT22;20159;51.072;13.526;2022-08-19T11:09:10;27.90;74.50
33865;DHT22;20159;51.072;13.526;2022-08-19T11:11:37;27.80;74.10
33865;DHT22;20159;51.072;13.526;2022-08-19T11:14:07;27.80;74.20
33865;DHT22;20159;51.072;13.526;2022-08-19T11:16:33;27.70;74.30
33865;DHT22;20159;51.072;13.526;2022-08-19T11:18:59;27.60;74.30
33865;DHT22;20159;51.072;13.526;2022-08-19T11:21:28;27.50;74.70
33865;DHT22;20159;51.072;13.526;2022-08-19T11:23:58;27.40;75.50
33865;DHT22;20159;51.072;13.526;2022-08-19T11:26:24;27.40;74.80
33865;DHT22;20159;51.072;13.526;2022-08-19T11:28:50;27.30;75.60
33865;DHT22;20159;51.072;13.526;2022-08-19T11:31:29;27.30;76.00
33865;DHT22;20159;51.072;13.526;2022-08-19T11:33:57;27.40;75.70
33865;DHT22;20159;51.072;13.526;2022-08-19T11:36:22;27.40;74.90
33865;DHT22;20159;51.072;13.526;2022-08-19T11:38:49;27.30;74.80
33865;DHT22;20159;51.072;13.526;2022-08-19T11:41:17;27.30;74.50
33865;DHT22;20159;51.072;13.526;2022-08-19T11:43:43;27.20;74.50
33865;DHT22;20159;51.072;13.526;2022-08-19T11:46:12;27.40;74.50
33865;DHT22;20159;51.072;13.526;2022-08-19T11:48:38;27.00;74.10
33865;DHT22;20159;51.072;13.526;2022-08-19T11:51:10;27.00;74.70
33865;DHT22;20159;51.072;13.526;2022-08-19T11:53:36;26.90;74.80
33865;DHT22;20159;51.072;13.526;2022-08-19T11:56:03;26.80;74.80
33865;DHT22;20159;51.072;13.526;2022-08-19T11:58:29;26.70;74.90
33865;DHT22;20159;51.072;13.526;2022-08-19T12:00:55;26.70;74.90
33865;DHT22;20159;51.072;13.526;2022-08-19T12:03:20;26.60;75.30
33865;DHT22;20159;51.072;13.526;2022-08-19T12:05:46;26.50;75.20
33865;DHT22;20159;51.072;13.526;2022-08-19T12:08:13;26.40;75.00
33865;DHT22;20159;51.072;13.526;2022-08-19T12:10:39;25.60;74.80
33865;DHT22;20159;51.072;13.526;2022-08-19T12:13:06;26.30;75.70
33865;DHT22;20159;51.072;13.526;2022-08-19T12:15:38;26.20;75.80
33865;DHT22;20159;51.072;13.526;2022-08-19T12:18:06;26.10;76.50
33865;DHT22;20159;51.072;13.526;2022-08-19T12:20:35;26.10;76.20
33865;DHT22;20159;51.072;13.526;2022-08-19T12:23:00;26.00;76.70
33865;DHT22;20159;51.072;13.526;2022-08-19T12:25:26;26.00;77.20
33865;DHT22;20159;51.072;13.526;2022-08-19T12:27:52;25.90;76.70
33865;DHT22;20159;51.072;13.526;2022-08-19T12:30:17;25.90;76.40
33865;DHT22;20159;51.072;13.526;2022-08-19T12:32:43;25.80;76.60
33865;DHT22;20159;51.072;13.526;2022-08-19T12:35:09;25.80;76.60
33865;DHT22;20159;51.072;13.526;2022-08-19T12:37:35;25.80;76.90
33865;DHT22;20159;51.072;13.526;2022-08-19T12:40:02;25.80;77.10
33865;DHT22;20159;51.072;13.526;2022-08-19T12:42:28;25.70;77.10
33865;DHT22;20159;51.072;13.526;2022-08-19T12:44:54;25.70;77.10
33865;DHT22;20159;51.072;13.526;2022-08-19T12:47:20;25.70;77.10
33865;DHT22;20159;51.072;13.526;2022-08-19T12:49:46;25.70;77.50
33865;DHT22;20159;51.072;13.526;2022-08-19T12:52:13;25.70;77.30
33865;DHT22;20159;51.072;13.526;2022-08-19T12:54:42;25.70;77.10
33865;DHT22;20159;51.072;13.526;2022-08-19T12:57:09;25.70;77.50
33865;DHT22;20159;51.072;13.526;2022-08-19T12:59:37;25.70;77.40
33865;DHT22;20159;51.072;13.526;2022-08-19T13:02:04;25.80;77.20
33865;DHT22;20159;51.072;13.526;2022-08-19T13:04:31;25.80;77.50
33865;DHT22;20159;51.072;13.526;2022-08-19T13:06:58;25.80;77.00
33865;DHT22;20159;51.072;13.526;2022-08-19T13:09:23;25.70;77.10
33865;DHT22;20159;51.072;13.526;2022-08-19T13:11:49;25.80;76.90
33865;DHT22;20159;51.072;13.526;2022-08-19T13:14:14;25.70;76.60
33865;DHT22;20159;51.072;13.526;2022-08-19T13:16:40;25.70;76.80
33865;DHT22;20159;51.072;13.526;2022-08-19T13:19:06;25.60;77.10
33865;DHT22;20159;51.072;13.526;2022-08-19T13:21:32;25.50;77.00
33865;DHT22;20159;51.072;13.526;2022-08-19T13:23:58;25.50;77.20
33865;DHT22;20159;51.072;13.526;2022-08-19T13:26:23;25.40;77.70
33865;DHT22;20159;51.072;13.526;2022-08-19T13:28:49;25.40;77.90
33865;DHT22;20159;51.072;13.526;2022-08-19T13:31:38;25.30;78.10
33865;DHT22;20159;51.072;13.526;2022-08-19T13:34:33;25.30;78.30
33865;DHT22;20159;51.072;13.526;2022-08-19T13:37:01;25.30;78.20
33865;DHT22;20159;51.072;13.526;2022-08-19T13:39:31;25.30;78.10
33865;DHT22;20159;51.072;13.526;2022-08-19T13:41:57;25.30;78.30
33865;DHT22;20159;51.072;13.526;2022-08-19T13:44:23;25.40;77.90
33865;DHT22;20159;51.072;13.526;2022-08-19T13:46:49;25.40;77.90
33865;DHT22;20159;51.072;13.526;2022-08-19T13:49:15;25.30;77.80
33865;DHT22;20159;51.072;13.526;2022-08-19T13:51:42;25.40;78.10
33865;DHT22;20159;51.072;13.526;2022-08-19T13:54:09;25.40;78.40
33865;DHT22;20159;51.072;13.526;2022-08-19T13:56:39;25.40;78.20
33865;DHT22;20159;51.072;13.526;2022-08-19T13:59:05;25.40;78.00
33865;DHT22;20159;51.072;13.526;2022-08-19T14:01:30;25.40;77.90
33865;DHT22;20159;51.072;13.526;2022-08-19T14:03:56;25.40;78.20
33865;DHT22;20159;51.072;13.526;2022-08-19T14:06:21;25.40;78.10
33865;DHT22;20159;51.072;13.526;2022-08-19T14:08:47;25.30;77.90
33865;DHT22;20159;51.072;13.526;2022-08-19T14:11:13;25.30;78.10
33865;DHT22;20159;51.072;13.526;2022-08-19T14:13:39;25.30;77.90
33865;DHT22;20159;51.072;13.526;2022-08-19T14:16:09;25.30;77.80
33865;DHT22;20159;51.072;13.526;2022-08-19T14:18:35;25.20;78.20
33865;DHT22;20159;51.072;13.526;2022-08-19T14:21:01;25.20;77.80
33865;DHT22;20159;51.072;13.526;2022-08-19T14:23:28;25.20;78.00
33865;DHT22;20159;51.072;13.526;2022-08-19T14:26:02;25.20;78.00
33865;DHT22;20159;51.072;13.526;2022-08-19T14:28:27;25.20;78.80
33865;DHT22;20159;51.072;13.526;2022-08-19T14:30:53;25.20;78.40
33865;DHT22;20159;51.072;13.526;2022-08-19T14:33:19;25.30;78.80
33865;DHT22;20159;51.072;13.526;2022-08-19T14:35:44;25.30;78.20
33865;DHT22;20159;51.072;13.526;2022-08-19T14:38:16;25.40;78.40
33865;DHT22;20159;51.072;13.526;2022-08-19T14:40:42;25.30;78.10
33865;DHT22;20159;51.072;13.526;2022-08-19T14:43:07;25.40;77.90
33865;DHT22;20159;51.072;13.526;2022-08-19T14:45:36;25.40;77.70
33865;DHT22;20159;51.072;13.526;2022-08-19T14:48:06;25.40;77.30
33865;DHT22;20159;51.072;13.526;2022-08-19T14:50:33;25.50;77.20
33865;DHT22;20159;51.072;13.526;2022-08-19T14:53:05;24.50;76.70
33865;DHT22;20159;51.072;13.526;2022-08-19T14:55:31;25.50;77.00
33865;DHT22;20159;51.072;13.526;2022-08-19T14:57:58;25.50;77.10
33865;DHT22;20159;51.072;13.526;2022-08-19T15:00:24;25.50;77.40
33865;DHT22;20159;51.072;13.526;2022-08-19T15:02:50;27.20;78.50
33865;DHT22;20159;51.072;13.526;2022-08-19T15:05:15;25.40;77.20
33865;DHT22;20159;51.072;13.526;2022-08-19T15:07:42;25.40;76.90
33865;DHT22;20159;51.072;13.526;2022-08-19T15:10:09;25.40;76.90
33865;DHT22;20159;51.072;13.526;2022-08-19T15:12:35;25.50;76.70
33865;DHT22;20159;51.072;13.526;2022-08-19T15:15:01;25.50;76.60
33865;DHT22;20159;51.072;13.526;2022-08-19T15:17:26;25.50;76.70
33865;DHT22;20159;51.072;13.526;2022-08-19T15:19:52;25.50;76.80